sensor_id;sensor_type;location;lat;lon;timestamp;pressure;altitude;pressure_sealevel;temperature;humidity
21826;BME280;11075;47.944;11.776;2023-03-04T00:02:19;95068.56;;;7.53;23.00
21826;BME280;11075;47.944;11.776;2023-03-04T00:04:46;95080.34;;;9.43;21.36
21826;BME280;11075;47.944;11.776;2023-03-04T00:07:12;95085.59;;;8.36;21.86
21826;BME280;11075;47.944;11.776;2023-03-04T00:09:43;95067.44;;;7.01;24.07
21826;BME280;11075;47.944;11.776;2023-03-04T00:12:11;95073.41;;;8.30;22.60
21826;BME280;11075;47.944;11.776;2023-03-04T00:14:38;95078.50;;;8.66;21.89
21826;BME280;11075;47.944;11.776;2023-03-04T00:17:04;95075.53;;;8.94;22.06
21826;BME280;11075;47.944;11.776;2023-03-04T00:19:32;95050.31;;;6.43;25.13
21826;BME280;11075;47.944;11.776;2023-03-04T00:22:01;95036.94;;;4.55;27.42
21826;BME280;11075;47.944;11.776;2023-03-04T00:24:28;95057.06;;;7.61;23.43
21826;BME280;11075;47.944;11.776;2023-03-04T00:26:55;95067.38;;;8.07;22.87
21826;BME280;11075;47.944;11.776;2023-03-04T00:29:22;95079.38;;;9.57;21.11
21826;BME280;11075;47.944;11.776;2023-03-04T00:31:49;95071.38;;;8.44;22.29
21826;BME280;11075;47.944;11.776;2023-03-04T00:34:16;95072.16;;;8.36;22.78
21826;BME280;11075;47.944;11.776;2023-03-04T00:36:43;95069.34;;;8.93;22.49
21826;BME280;11075;47.944;11.776;2023-03-04T00:39:11;95063.28;;;7.17;23.96
21826;BME280;11075;47.944;11.776;2023-03-04T00:41:38;95054.09;;;6.28;25.35
21826;BME280;11075;47.944;11.776;2023-03-04T00:44:05;95048.44;;;6.44;25.46
21826;BME280;11075;47.944;11.776;2023-03-04T00:46:32;95068.56;;;9.01;22.42
21826;BME280;11075;47.944;11.776;2023-03-04T00:48:59;95071.78;;;6.88;24.48
21826;BME280;11075;47.944;11.776;2023-03-04T00:51:26;95056.59;;;7.59;23.72
21826;BME280;11075;47.944;11.776;2023-03-04T00:53:53;95064.38;;;9.38;21.80
21826;BME280;11075;47.944;11.776;2023-03-04T00:56:20;95067.53;;;7.71;23.68
21826;BME280;11075;47.944;11.776;2023-03-04T00:58:46;95062.41;;;9.01;22.13
21826;BME280;11075;47.944;11.776;2023-03-04T01:01:13;95071.34;;;8.27;22.67
21826;BME280;11075;47.944;11.776;2023-03-04T01:03:40;95074.16;;;9.51;21.68
21826;BME280;11075;47.944;11.776;2023-03-04T01:06:08;95064.44;;;7.86;23.34
21826;BME280;11075;47.944;11.776;2023-03-04T01:08:37;95057.81;;;8.93;22.29
21826;BME280;11075;47.944;11.776;2023-03-04T01:11:05;95051.00;;;7.78;23.17
21826;BME280;11075;47.944;11.776;2023-03-04T01:13:32;95050.31;;;7.33;23.57
21826;BME280;11075;47.944;11.776;2023-03-04T01:15:59;95037.56;;;6.62;24.97
21826;BME280;11075;47.944;11.776;2023-03-04T01:18:26;95047.41;;;7.91;23.26
21826;BME280;11075;47.944;11.776;2023-03-04T01:20:53;95034.06;;;7.69;23.87
21826;BME280;11075;47.944;11.776;2023-03-04T01:23:20;95034.88;;;8.78;22.98
21826;BME280;11075;47.944;11.776;2023-03-04T01:25:47;95036.47;;;8.70;22.57
21826;BME280;11075;47.944;11.776;2023-03-04T01:28:14;95036.16;;;8.46;22.88
21826;BME280;11075;47.944;11.776;2023-03-04T01:30:41;95048.56;;;9.37;21.64
21826;BME280;11075;47.944;11.776;2023-03-04T01:33:08;95040.25;;;9.12;22.14
21826;BME280;11075;47.944;11.776;2023-03-04T01:35:35;95050.16;;;9.29;21.87
21826;BME280;11075;47.944;11.776;2023-03-04T01:38:02;95038.53;;;8.56;23.15
21826;BME280;11075;47.944;11.776;2023-03-04T01:40:31;95013.06;;;5.56;26.21
21826;BME280;11075;47.944;11.776;2023-03-04T01:42:57;95035.84;;;8.47;23.13
21826;BME280;11075;47.944;11.776;2023-03-04T01:45:25;95009.59;;;5.83;26.23
21826;BME280;11075;47.944;11.776;2023-03-04T01:47:52;94997.31;;;6.18;26.28
21826;BME280;11075;47.944;11.776;2023-03-04T01:50:26;95024.78;;;8.49;23.42
21826;BME280;11075;47.944;11.776;2023-03-04T01:52:53;95027.47;;;9.56;21.89
21826;BME280;11075;47.944;11.776;2023-03-04T01:55:22;95032.34;;;9.07;22.40
21826;BME280;11075;47.944;11.776;2023-03-04T01:57:50;95012.78;;;8.55;23.03
21826;BME280;11075;47.944;11.776;2023-03-04T02:00:30;95019.69;;;8.04;23.45
21826;BME280;11075;47.944;11.776;2023-03-04T02:03:00;95003.13;;;7.23;24.56
21826;BME280;11075;47.944;11.776;2023-03-04T02:05:29;95000.78;;;7.70;24.46
21826;BME280;11075;47.944;11.776;2023-03-04T02:07:57;95019.47;;;9.30;22.52
21826;BME280;11075;47.944;11.776;2023-03-04T02:10:25;95011.00;;;8.07;23.64
21826;BME280;11075;47.944;11.776;2023-03-04T02:12:52;94994.06;;;7.10;24.73
21826;BME280;11075;47.944;11.776;2023-03-04T02:15:19;95002.97;;;8.33;23.46
21826;BME280;11075;47.944;11.776;2023-03-04T02:17:47;95004.72;;;8.38;23.49
21826;BME280;11075;47.944;11.776;2023-03-04T02:20:24;95003.38;;;9.22;22.70
21826;BME280;11075;47.944;11.776;2023-03-04T02:23:06;94997.94;;;8.83;22.94
21826;BME280;11075;47.944;11.776;2023-03-04T02:25:43;95001.34;;;9.10;22.30
21826;BME280;11075;47.944;11.776;2023-03-04T02:28:11;94995.06;;;8.28;23.22
21826;BME280;11075;47.944;11.776;2023-03-04T02:30:38;94990.38;;;7.68;23.75
21826;BME280;11075;47.944;11.776;2023-03-04T02:33:06;94974.78;;;6.32;25.42
21826;BME280;11075;47.944;11.776;2023-03-04T02:35:36;94983.00;;;7.91;23.56
21826;BME280;11075;47.944;11.776;2023-03-04T02:38:02;94988.91;;;8.71;22.69
21826;BME280;11075;47.944;11.776;2023-03-04T02:40:32;94985.75;;;8.43;22.72
21826;BME280;11075;47.944;11.776;2023-03-04T02:43:00;95006.22;;;9.16;21.99
21826;BME280;11075;47.944;11.776;2023-03-04T02:48:07;94987.31;;;8.09;22.94
21826;BME280;11075;47.944;11.776;2023-03-04T02:50:38;94967.19;;;5.08;26.49
21826;BME280;11075;47.944;11.776;2023-03-04T02:53:06;94947.28;;;4.21;27.83
21826;BME280;11075;47.944;11.776;2023-03-04T02:55:33;94947.44;;;4.62;27.55
21826;BME280;11075;47.944;11.776;2023-03-04T02:58:00;94968.66;;;6.77;24.44
21826;BME280;11075;47.944;11.776;2023-03-04T03:00:28;94978.38;;;7.66;23.34
21826;BME280;11075;47.944;11.776;2023-03-04T03:02:56;94986.22;;;8.19;22.51
21826;BME280;11075;47.944;11.776;2023-03-04T03:05:25;94982.38;;;7.94;22.80
21826;BME280;11075;47.944;11.776;2023-03-04T03:07:54;94989.63;;;7.85;22.74
21826;BME280;11075;47.944;11.776;2023-03-04T03:10:21;94988.06;;;6.82;23.94
21826;BME280;11075;47.944;11.776;2023-03-04T03:12:49;94992.97;;;7.99;22.18
21826;BME280;11075;47.944;11.776;2023-03-04T03:15:17;94982.28;;;7.20;23.27
21826;BME280;11075;47.944;11.776;2023-03-04T03:17:44;94990.22;;;6.72;23.92
21826;BME280;11075;47.944;11.776;2023-03-04T03:20:13;94975.22;;;5.35;25.05
21826;BME280;11075;47.944;11.776;2023-03-04T03:22:41;94989.09;;;7.57;22.77
21826;BME280;11075;47.944;11.776;2023-03-04T03:25:09;94976.09;;;6.57;23.85
21826;BME280;11075;47.944;11.776;2023-03-04T03:27:36;94987.16;;;6.87;23.09
21826;BME280;11075;47.944;11.776;2023-03-04T03:30:05;94985.66;;;7.25;23.17
21826;BME280;11075;47.944;11.776;2023-03-04T03:32:34;94987.41;;;7.30;22.74
21826;BME280;11075;47.944;11.776;2023-03-04T03:35:02;94989.75;;;7.23;22.71
21826;BME280;11075;47.944;11.776;2023-03-04T03:37:29;94993.84;;;6.98;22.98
21826;BME280;11075;47.944;11.776;2023-03-04T03:39:56;94986.00;;;7.33;22.68
21826;BME280;11075;47.944;11.776;2023-03-04T03:42:23;94984.63;;;7.13;22.93
21826;BME280;11075;47.944;11.776;2023-03-04T03:44:50;94998.56;;;6.34;23.20
21826;BME280;11075;47.944;11.776;2023-03-04T03:47:16;94981.16;;;4.72;25.05
21826;BME280;11075;47.944;11.776;2023-03-04T03:49:43;94981.84;;;5.92;23.72
21826;BME280;11075;47.944;11.776;2023-03-04T03:52:10;94995.97;;;6.87;22.34
21826;BME280;11075;47.944;11.776;2023-03-04T03:54:38;94997.28;;;7.60;22.02
21826;BME280;11075;47.944;11.776;2023-03-04T03:57:05;95002.34;;;7.62;21.63
21826;BME280;11075;47.944;11.776;2023-03-04T03:59:32;95004.44;;;6.58;22.14
21826;BME280;11075;47.944;11.776;2023-03-04T04:01:58;95009.19;;;6.61;22.65
21826;BME280;11075;47.944;11.776;2023-03-04T04:04:25;94995.31;;;5.19;24.08
21826;BME280;11075;47.944;11.776;2023-03-04T04:06:53;94990.81;;;6.69;22.74
21826;BME280;11075;47.944;11.776;2023-03-04T04:09:20;95000.56;;;5.38;23.60
21826;BME280;11075;47.944;11.776;2023-03-04T04:11:47;95002.13;;;7.19;22.04
21826;BME280;11075;47.944;11.776;2023-03-04T04:14:13;95009.22;;;6.12;22.82
21826;BME280;11075;47.944;11.776;2023-03-04T04:16:40;95011.44;;;7.21;21.92
21826;BME280;11075;47.944;11.776;2023-03-04T04:19:17;95020.59;;;7.20;21.43
21826;BME280;11075;47.944;11.776;2023-03-04T04:21:44;95017.22;;;7.06;21.54
21826;BME280;11075;47.944;11.776;2023-03-04T04:24:12;95022.63;;;5.98;22.28
21826;BME280;11075;47.944;11.776;2023-03-04T04:26:39;94971.94;;;2.41;27.65
21826;BME280;11075;47.944;11.776;2023-03-04T04:29:06;94978.63;;;4.81;24.52
21826;BME280;11075;47.944;11.776;2023-03-04T04:31:34;94991.56;;;5.47;23.94
21826;BME280;11075;47.944;11.776;2023-03-04T04:34:01;94991.75;;;5.23;23.95
21826;BME280;11075;47.944;11.776;2023-03-04T04:36:28;95002.50;;;6.50;22.66
21826;BME280;11075;47.944;11.776;2023-03-04T04:38:55;94988.34;;;5.04;24.45
21826;BME280;11075;47.944;11.776;2023-03-04T04:41:25;94999.28;;;5.35;23.84
21826;BME280;11075;47.944;11.776;2023-03-04T04:43:53;95001.25;;;6.34;22.58
21826;BME280;11075;47.944;11.776;2023-03-04T04:46:20;94989.50;;;3.95;25.28
21826;BME280;11075;47.944;11.776;2023-03-04T04:48:47;94998.66;;;5.24;23.06
21826;BME280;11075;47.944;11.776;2023-03-04T04:51:14;95005.94;;;5.65;23.18
21826;BME280;11075;47.944;11.776;2023-03-04T04:53:41;94993.44;;;5.74;23.09
21826;BME280;11075;47.944;11.776;2023-03-04T04:56:20;94998.44;;;6.03;22.77
21826;BME280;11075;47.944;11.776;2023-03-04T04:58:48;95005.50;;;5.30;23.17
21826;BME280;11075;47.944;11.776;2023-03-04T05:01:15;94998.06;;;5.27;23.48
21826;BME280;11075;47.944;11.776;2023-03-04T05:03:42;95001.44;;;5.19;23.91
21826;BME280;11075;47.944;11.776;2023-03-04T05:06:10;94987.19;;;3.46;25.83
21826;BME280;11075;47.944;11.776;2023-03-04T05:08:37;94998.97;;;5.36;23.16
21826;BME280;11075;47.944;11.776;2023-03-04T05:11:05;94999.66;;;5.42;23.08
21826;BME280;11075;47.944;11.776;2023-03-04T05:13:33;95000.81;;;4.44;24.27
21826;BME280;11075;47.944;11.776;2023-03-04T05:16:00;94999.06;;;5.31;23.77
21826;BME280;11075;47.944;11.776;2023-03-04T05:18:27;95008.69;;;5.87;22.98
21826;BME280;11075;47.944;11.776;2023-03-04T05:20:58;95005.72;;;5.75;22.85
21826;BME280;11075;47.944;11.776;2023-03-04T05:23:27;94995.97;;;4.64;23.97
21826;BME280;11075;47.944;11.776;2023-03-04T05:25:55;94998.03;;;5.00;24.09
21826;BME280;11075;47.944;11.776;2023-03-04T05:28:22;95002.31;;;5.15;23.03
21826;BME280;11075;47.944;11.776;2023-03-04T05:30:49;94987.59;;;2.08;27.11
21826;BME280;11075;47.944;11.776;2023-03-04T05:33:17;94995.03;;;4.55;24.26
21826;BME280;11075;47.944;11.776;2023-03-04T05:35:45;94998.69;;;4.78;24.02
21826;BME280;11075;47.944;11.776;2023-03-04T05:38:15;94971.56;;;2.87;26.61
21826;BME280;11075;47.944;11.776;2023-03-04T05:40:45;94950.72;;;0.47;30.56
21826;BME280;11075;47.944;11.776;2023-03-04T05:43:12;94960.06;;;2.67;27.20
21826;BME280;11075;47.944;11.776;2023-03-04T05:45:39;94959.06;;;2.24;27.94
21826;BME280;11075;47.944;11.776;2023-03-04T05:48:08;94961.03;;;0.84;30.26
21826;BME280;11075;47.944;11.776;2023-03-04T05:50:35;94942.91;;;2.15;29.10
21826;BME280;11075;47.944;11.776;2023-03-04T05:53:02;94954.16;;;2.99;27.60
21826;BME280;11075;47.944;11.776;2023-03-04T05:55:29;94971.09;;;3.32;26.34
21826;BME280;11075;47.944;11.776;2023-03-04T05:57:56;94971.75;;;4.42;25.57
21826;BME280;11075;47.944;11.776;2023-03-04T06:00:25;94967.00;;;3.16;26.76
21826;BME280;11075;47.944;11.776;2023-03-04T06:02:53;94967.81;;;3.17;26.62
21826;BME280;11075;47.944;11.776;2023-03-04T06:05:20;94965.56;;;3.71;26.78
21826;BME280;11075;47.944;11.776;2023-03-04T06:07:48;94964.53;;;2.72;27.80
21826;BME280;11075;47.944;11.776;2023-03-04T06:10:16;94983.25;;;4.24;25.55
21826;BME280;11075;47.944;11.776;2023-03-04T06:12:44;94999.38;;;4.51;25.00
21826;BME280;11075;47.944;11.776;2023-03-04T06:15:11;94998.97;;;4.06;25.38
21826;BME280;11075;47.944;11.776;2023-03-04T06:17:41;94976.19;;;3.05;27.08
21826;BME280;11075;47.944;11.776;2023-03-04T06:20:09;94981.63;;;1.88;28.57
21826;BME280;11075;47.944;11.776;2023-03-04T06:22:38;94979.38;;;1.56;28.71
21826;BME280;11075;47.944;11.776;2023-03-04T06:25:05;94987.16;;;2.98;27.25
21826;BME280;11075;47.944;11.776;2023-03-04T06:27:32;94974.72;;;2.60;27.77
21826;BME280;11075;47.944;11.776;2023-03-04T06:29:59;94971.97;;;2.02;29.20
21826;BME280;11075;47.944;11.776;2023-03-04T06:32:27;94978.22;;;2.89;27.70
21826;BME280;11075;47.944;11.776;2023-03-04T06:34:54;94986.84;;;4.14;26.23
21826;BME280;11075;47.944;11.776;2023-03-04T06:37:21;94975.84;;;3.35;27.45
21826;BME280;11075;47.944;11.776;2023-03-04T06:39:49;94990.94;;;4.44;26.23
21826;BME280;11075;47.944;11.776;2023-03-04T06:42:15;95002.19;;;5.52;24.84
21826;BME280;11075;47.944;11.776;2023-03-04T06:44:43;95006.34;;;6.22;24.36
21826;BME280;11075;47.944;11.776;2023-03-04T06:47:10;95002.44;;;5.51;25.26
21826;BME280;11075;47.944;11.776;2023-03-04T06:49:36;95001.63;;;5.23;25.35
21826;BME280;11075;47.944;11.776;2023-03-04T06:52:04;95002.44;;;4.77;26.21
21826;BME280;11075;47.944;11.776;2023-03-04T06:54:30;94986.50;;;3.35;28.55
21826;BME280;11075;47.944;11.776;2023-03-04T06:56:57;95013.91;;;6.06;25.00
21826;BME280;11075;47.944;11.776;2023-03-04T06:59:25;95006.78;;;6.02;25.14
21826;BME280;11075;47.944;11.776;2023-03-04T07:01:51;95006.53;;;4.18;26.83
21826;BME280;11075;47.944;11.776;2023-03-04T07:04:18;94998.97;;;5.36;26.41
21826;BME280;11075;47.944;11.776;2023-03-04T07:06:45;95013.72;;;5.89;25.74
21826;BME280;11075;47.944;11.776;2023-03-04T07:09:12;95004.91;;;4.74;26.75
21826;BME280;11075;47.944;11.776;2023-03-04T07:11:39;95010.66;;;6.45;25.10
21826;BME280;11075;47.944;11.776;2023-03-04T07:14:06;94990.59;;;4.32;28.34
21826;BME280;11075;47.944;11.776;2023-03-04T07:16:32;95005.91;;;6.42;25.56
21826;BME280;11075;47.944;11.776;2023-03-04T07:19:00;94987.34;;;4.35;28.41
21826;BME280;11075;47.944;11.776;2023-03-04T07:21:26;94989.78;;;4.83;27.72
21826;BME280;11075;47.944;11.776;2023-03-04T07:23:54;94997.28;;;5.95;26.86
21826;BME280;11075;47.944;11.776;2023-03-04T07:26:21;95016.50;;;6.92;24.51
21826;BME280;11075;47.944;11.776;2023-03-04T07:28:47;95002.94;;;6.66;25.87
21826;BME280;11075;47.944;11.776;2023-03-04T07:31:22;95004.72;;;7.24;25.57
21826;BME280;11075;47.944;11.776;2023-03-04T07:33:50;95018.94;;;8.30;24.50
21826;BME280;11075;47.944;11.776;2023-03-04T07:36:17;95020.59;;;7.20;25.12
21826;BME280;11075;47.944;11.776;2023-03-04T07:38:46;95013.72;;;8.42;24.29
21826;BME280;11075;47.944;11.776;2023-03-04T07:41:14;95028.41;;;10.19;22.58
21826;BME280;11075;47.944;11.776;2023-03-04T07:43:42;95030.94;;;7.75;24.90
21826;BME280;11075;47.944;11.776;2023-03-04T07:46:09;95029.78;;;10.04;22.76
21826;BME280;11075;47.944;11.776;2023-03-04T07:48:36;95024.22;;;7.47;25.43
21826;BME280;11075;47.944;11.776;2023-03-04T07:51:06;95018.28;;;8.67;23.97
21826;BME280;11075;47.944;11.776;2023-03-04T07:53:33;95029.16;;;9.69;23.25
21826;BME280;11075;47.944;11.776;2023-03-04T07:56:01;95045.19;;;9.57;23.62
21826;BME280;11075;47.944;11.776;2023-03-04T07:58:28;95044.09;;;10.88;22.13
21826;BME280;11075;47.944;11.776;2023-03-04T08:00:55;95024.25;;;9.71;23.83
21826;BME280;11075;47.944;11.776;2023-03-04T08:03:23;95044.13;;;10.17;22.44
21826;BME280;11075;47.944;11.776;2023-03-04T08:05:50;95044.03;;;10.05;22.59
21826;BME280;11075;47.944;11.776;2023-03-04T08:08:17;95033.19;;;7.42;25.88
21826;BME280;11075;47.944;11.776;2023-03-04T08:10:44;95055.44;;;11.15;21.45
21826;BME280;11075;47.944;11.776;2023-03-04T08:13:12;95065.19;;;12.10;20.92
21826;BME280;11075;47.944;11.776;2023-03-04T08:15:41;95062.59;;;11.77;21.37
21826;BME280;11075;47.944;11.776;2023-03-04T08:18:08;95067.94;;;11.64;21.39
21826;BME280;11075;47.944;11.776;2023-03-04T08:20:36;95063.28;;;11.07;21.84
21826;BME280;11075;47.944;11.776;2023-03-04T08:23:02;95057.94;;;7.17;25.19
21826;BME280;11075;47.944;11.776;2023-03-04T08:25:30;95068.34;;;11.42;21.28
21826;BME280;11075;47.944;11.776;2023-03-04T08:27:58;95041.78;;;6.41;26.88
21826;BME280;11075;47.944;11.776;2023-03-04T08:30:25;95035.84;;;8.47;25.22
21826;BME280;11075;47.944;11.776;2023-03-04T08:32:53;95043.84;;;8.13;24.78
21826;BME280;11075;47.944;11.776;2023-03-04T08:35:20;95035.50;;;5.41;26.98
21826;BME280;11075;47.944;11.776;2023-03-04T08:37:46;95060.06;;;9.63;22.76
21826;BME280;11075;47.944;11.776;2023-03-04T08:40:14;95039.66;;;7.19;25.90
21826;BME280;11075;47.944;11.776;2023-03-04T08:42:41;95044.41;;;7.92;24.60
21826;BME280;11075;47.944;11.776;2023-03-04T08:45:09;95069.50;;;11.53;21.26
21826;BME280;11075;47.944;11.776;2023-03-04T08:47:37;95055.72;;;9.15;23.33
21826;BME280;11075;47.944;11.776;2023-03-04T08:50:05;95037.28;;;5.46;26.95
21826;BME280;11075;47.944;11.776;2023-03-04T08:52:32;95045.16;;;8.59;24.32
21826;BME280;11075;47.944;11.776;2023-03-04T08:54:59;95067.56;;;12.35;20.86
21826;BME280;11075;47.944;11.776;2023-03-04T08:57:26;95064.63;;;10.01;22.53
21826;BME280;11075;47.944;11.776;2023-03-04T08:59:53;95058.13;;;9.72;23.06
21826;BME280;11075;47.944;11.776;2023-03-04T09:02:20;95066.25;;;9.46;22.27
21826;BME280;11075;47.944;11.776;2023-03-04T09:04:47;95072.59;;;10.27;21.72
21826;BME280;11075;47.944;11.776;2023-03-04T09:07:14;95074.94;;;10.78;21.49
21826;BME280;11075;47.944;11.776;2023-03-04T09:09:41;95090.59;;;13.10;19.12
21826;BME280;11075;47.944;11.776;2023-03-04T09:12:08;95079.91;;;12.00;20.25
21826;BME280;11075;47.944;11.776;2023-03-04T09:14:35;95091.88;;;12.35;19.86
21826;BME280;11075;47.944;11.776;2023-03-04T09:17:03;95081.56;;;7.68;23.23
21826;BME280;11075;47.944;11.776;2023-03-04T09:19:30;95072.81;;;9.19;22.38
21826;BME280;11075;47.944;11.776;2023-03-04T09:21:58;95085.16;;;10.14;21.23
21826;BME280;11075;47.944;11.776;2023-03-04T09:24:25;95082.16;;;9.05;21.51
21826;BME280;11075;47.944;11.776;2023-03-04T09:26:52;95097.63;;;9.89;20.79
21826;BME280;11075;47.944;11.776;2023-03-04T09:29:21;95090.94;;;9.95;20.06
21826;BME280;11075;47.944;11.776;2023-03-04T09:31:48;95077.88;;;8.61;22.69
21826;BME280;11075;47.944;11.776;2023-03-04T09:34:15;95090.66;;;10.97;20.00
21826;BME280;11075;47.944;11.776;2023-03-04T09:36:43;95091.22;;;12.79;19.09
21826;BME280;11075;47.944;11.776;2023-03-04T09:39:10;95080.06;;;11.58;20.75
21826;BME280;11075;47.944;11.776;2023-03-04T09:41:46;95080.53;;;11.60;20.69
21826;BME280;11075;47.944;11.776;2023-03-04T09:44:34;95081.25;;;12.55;19.63
21826;BME280;11075;47.944;11.776;2023-03-04T09:47:06;95081.06;;;13.00;19.20
21826;BME280;11075;47.944;11.776;2023-03-04T09:49:38;95083.09;;;11.11;20.42
21826;BME280;11075;47.944;11.776;2023-03-04T10:03:39;95083.47;;;10.60;20.47
21826;BME280;11075;47.944;11.776;2023-03-04T10:06:11;95078.63;;;9.86;20.84
21826;BME280;11075;47.944;11.776;2023-03-04T10:08:44;95083.88;;;12.91;19.11
21826;BME280;11075;47.944;11.776;2023-03-04T10:11:36;95083.50;;;10.30;20.27
21826;BME280;11075;47.944;11.776;2023-03-04T10:17:06;95091.06;;;12.11;18.64
21826;BME280;11075;47.944;11.776;2023-03-04T10:20:00;95075.81;;;9.09;20.99
21826;BME280;11075;47.944;11.776;2023-03-04T10:22:35;95076.38;;;9.41;20.76
21826;BME280;11075;47.944;11.776;2023-03-04T10:28:03;95077.00;;;12.17;19.12
21826;BME280;11075;47.944;11.776;2023-03-04T10:33:17;95081.28;;;11.16;18.68
21826;BME280;11075;47.944;11.776;2023-03-04T10:35:52;95076.72;;;13.39;18.14
21826;BME280;11075;47.944;11.776;2023-03-04T10:38:22;95078.34;;;14.03;17.31
21826;BME280;11075;47.944;11.776;2023-03-04T10:40:49;95079.38;;;14.81;17.52
21826;BME280;11075;47.944;11.776;2023-03-04T10:43:19;95080.81;;;14.08;17.49
21826;BME280;11075;47.944;11.776;2023-03-04T10:45:47;95080.47;;;12.30;18.71
21826;BME280;11075;47.944;11.776;2023-03-04T10:48:28;95078.97;;;13.96;17.69
21826;BME280;11075;47.944;11.776;2023-03-04T10:53:40;95077.19;;;15.25;16.92
21826;BME280;11075;47.944;11.776;2023-03-04T10:56:35;95057.78;;;14.84;18.33
21826;BME280;11075;47.944;11.776;2023-03-04T11:02:42;95060.56;;;11.98;19.37
21826;BME280;11075;47.944;11.776;2023-03-04T11:07:59;95064.03;;;12.59;18.50
21826;BME280;11075;47.944;11.776;2023-03-04T11:18:40;95052.75;;;11.60;19.80
21826;BME280;11075;47.944;11.776;2023-03-04T11:21:24;95050.94;;;11.06;19.47
21826;BME280;11075;47.944;11.776;2023-03-04T11:23:56;95036.41;;;9.77;21.36
21826;BME280;11075;47.944;11.776;2023-03-04T11:26:37;95048.63;;;12.35;19.01
21826;BME280;11075;47.944;11.776;2023-03-04T11:29:16;95049.31;;;14.19;17.67
21826;BME280;11075;47.944;11.776;2023-03-04T11:31:54;95037.38;;;11.85;19.65
21826;BME280;11075;47.944;11.776;2023-03-04T11:40:15;95037.84;;;11.29;20.16
21826;BME280;11075;47.944;11.776;2023-03-04T11:45:24;95036.72;;;11.75;19.79
21826;BME280;11075;47.944;11.776;2023-03-04T11:48:22;95025.19;;;11.54;20.63
21826;BME280;11075;47.944;11.776;2023-03-04T11:56:49;95021.66;;;10.96;20.55
21826;BME280;11075;47.944;11.776;2023-03-04T11:59:45;95016.13;;;11.83;19.44
21826;BME280;11075;47.944;11.776;2023-03-04T12:06:05;95042.28;;;10.59;19.32
21826;BME280;11075;47.944;11.776;2023-03-04T12:26:28;95003.69;;;15.79;17.21
21826;BME280;11075;47.944;11.776;2023-03-04T12:42:17;95020.34;;;14.74;16.88
21826;BME280;11075;47.944;11.776;2023-03-04T12:45:23;94997.88;;;13.56;18.13
21826;BME280;11075;47.944;11.776;2023-03-04T12:51:04;95012.03;;;16.69;15.19
21826;BME280;11075;47.944;11.776;2023-03-04T12:56:03;95000.63;;;14.39;17.02
21826;BME280;11075;47.944;11.776;2023-03-04T12:58:32;95012.47;;;17.08;14.71
21826;BME280;11075;47.944;11.776;2023-03-04T13:01:29;94999.41;;;14.36;16.73
21826;BME280;11075;47.944;11.776;2023-03-04T13:04:26;95000.22;;;14.05;16.46
21826;BME280;11075;47.944;11.776;2023-03-04T13:07:07;94991.09;;;11.25;17.79
21826;BME280;11075;47.944;11.776;2023-03-04T13:09:49;94964.13;;;11.25;19.87
21826;BME280;11075;47.944;11.776;2023-03-04T13:12:21;94975.75;;;11.05;19.31
21826;BME280;11075;47.944;11.776;2023-03-04T13:18:49;94964.47;;;11.36;18.89
21826;BME280;11075;47.944;11.776;2023-03-04T13:21:19;94970.75;;;11.40;18.38
21826;BME280;11075;47.944;11.776;2023-03-04T13:23:47;94968.75;;;13.65;16.82
21826;BME280;11075;47.944;11.776;2023-03-04T13:29:10;94946.25;;;12.06;18.84
21826;BME280;11075;47.944;11.776;2023-03-04T13:32:00;94955.97;;;14.33;17.22
21826;BME280;11075;47.944;11.776;2023-03-04T13:34:43;94953.78;;;12.81;18.14
21826;BME280;11075;47.944;11.776;2023-03-04T13:38:19;94952.75;;;13.76;17.44
21826;BME280;11075;47.944;11.776;2023-03-04T13:40:37;94954.25;;;14.24;16.83
21826;BME280;11075;47.944;11.776;2023-03-04T13:43:24;94948.75;;;11.87;18.66
21826;BME280;11075;47.944;11.776;2023-03-04T13:45:51;94929.72;;;12.48;18.40
21826;BME280;11075;47.944;11.776;2023-03-04T13:48:31;94941.22;;;11.56;18.51
21826;BME280;11075;47.944;11.776;2023-03-04T13:51:02;94921.53;;;11.92;18.97
21826;BME280;11075;47.944;11.776;2023-03-04T13:53:34;94925.69;;;11.89;19.50
21826;BME280;11075;47.944;11.776;2023-03-04T14:01:33;94926.78;;;12.53;18.38
21826;BME280;11075;47.944;11.776;2023-03-04T14:04:16;94930.28;;;14.84;17.06
21826;BME280;11075;47.944;11.776;2023-03-04T14:06:46;94923.50;;;15.89;16.57
21826;BME280;11075;47.944;11.776;2023-03-04T14:09:18;94909.81;;;14.48;18.37
21826;BME280;11075;47.944;11.776;2023-03-04T14:11:51;94938.50;;;15.11;16.86
21826;BME280;11075;47.944;11.776;2023-03-04T14:15:02;94930.69;;;15.29;17.09
21826;BME280;11075;47.944;11.776;2023-03-04T14:17:32;94912.38;;;12.92;18.56
21826;BME280;11075;47.944;11.776;2023-03-04T14:20:04;94924.47;;;13.26;18.25
21826;BME280;11075;47.944;11.776;2023-03-04T14:22:37;94912.28;;;14.18;17.44
21826;BME280;11075;47.944;11.776;2023-03-04T14:27:40;94901.06;;;11.30;20.04
21826;BME280;11075;47.944;11.776;2023-03-04T14:30:25;94908.41;;;13.33;18.48
21826;BME280;11075;47.944;11.776;2023-03-04T14:33:22;94898.91;;;13.24;19.15
21826;BME280;11075;47.944;11.776;2023-03-04T14:35:52;94880.03;;;8.82;22.45
21826;BME280;11075;47.944;11.776;2023-03-04T14:38:29;94878.91;;;10.01;21.52
21826;BME280;11075;47.944;11.776;2023-03-04T14:41:09;94885.81;;;10.76;20.67
21826;BME280;11075;47.944;11.776;2023-03-04T14:43:49;94895.75;;;10.52;20.20
21826;BME280;11075;47.944;11.776;2023-03-04T14:46:18;94897.69;;;11.82;19.35
21826;BME280;11075;47.944;11.776;2023-03-04T14:48:51;94892.06;;;11.74;19.71
21826;BME280;11075;47.944;11.776;2023-03-04T14:51:31;94892.28;;;12.62;18.72
21826;BME280;11075;47.944;11.776;2023-03-04T14:53:58;94874.19;;;9.77;20.86
21826;BME280;11075;47.944;11.776;2023-03-04T14:56:30;94887.94;;;14.03;18.02
21826;BME280;11075;47.944;11.776;2023-03-04T14:58:59;94886.84;;;13.37;18.29
21826;BME280;11075;47.944;11.776;2023-03-04T15:06:26;94886.19;;;14.49;17.69
21826;BME280;11075;47.944;11.776;2023-03-04T15:11:27;94875.03;;;11.98;20.38